createdAt,value
2023-05-10T00:00:47.829Z,10.17
2023-05-10T00:03:14.729Z,10.17
2023-05-10T00:05:42.379Z,10.13
2023-05-10T00:08:08.901Z,10.16
2023-05-10T00:10:35.653Z,10.17
2023-05-10T00:13:02.119Z,10.12
2023-05-10T00:15:28.640Z,10.08
2023-05-10T00:17:55.240Z,10.05
2023-05-10T00:20:21.767Z,10.06
2023-05-10T00:22:48.271Z,10.00
2023-05-10T00:25:15.219Z,10.00
2023-05-10T00:27:41.724Z,9.96
2023-05-10T00:30:08.920Z,9.98
2023-05-10T00:32:35.479Z,9.96
2023-05-10T00:35:01.999Z,9.88
2023-05-10T00:37:28.533Z,9.90
2023-05-10T00:39:55.470Z,9.91
2023-05-10T00:42:23.176Z,9.90
2023-05-10T00:44:49.827Z,9.86
2023-05-10T00:47:18.782Z,9.82
2023-05-10T00:49:46.563Z,9.80
2023-05-10T00:52:13.315Z,9.79
2023-05-10T00:54:40.411Z,9.74
2023-05-10T00:57:07.222Z,9.76
2023-05-10T00:59:34.115Z,9.73
2023-05-10T01:02:00.540Z,9.71
2023-05-10T01:04:27.158Z,9.67
2023-05-10T01:06:54.205Z,9.69
2023-05-10T01:09:22.657Z,9.68
2023-05-10T01:11:51.909Z,9.65
2023-05-10T01:14:20.101Z,9.61
2023-05-10T01:16:49.522Z,9.59
2023-05-10T01:19:30.563Z,9.57
2023-05-10T01:22:41.282Z,9.52
2023-05-10T01:25:10.968Z,9.54
2023-05-10T01:27:59.925Z,9.59
2023-05-10T01:30:41.947Z,9.54
2023-05-10T01:33:44.506Z,9.53
2023-05-10T01:36:49.353Z,9.56
2023-05-10T01:39:31.519Z,9.46
2023-05-10T01:42:00.900Z,9.47
2023-05-10T01:45:07.797Z,9.44
2023-05-10T01:47:45.622Z,9.44
2023-05-10T01:50:19.180Z,9.35
2023-05-10T01:52:52.473Z,9.40
2023-05-10T01:55:22.142Z,9.38
2023-05-10T01:57:54.062Z,9.32
2023-05-10T02:00:21.340Z,9.37
2023-05-10T02:02:50.704Z,9.28
2023-05-10T02:05:20.167Z,9.25
2023-05-10T02:07:48.414Z,9.30
2023-05-10T02:10:19.690Z,9.26
2023-05-10T02:12:49.155Z,9.20
2023-05-10T02:15:21.015Z,9.18
2023-05-10T02:17:48.131Z,9.14
2023-05-10T02:20:17.595Z,9.10
2023-05-10T02:22:48.238Z,9.06
2023-05-10T02:25:16.404Z,9.01
2023-05-10T02:27:45.597Z,9.03
2023-05-10T02:30:15.101Z,9.01
2023-05-10T02:32:43.273Z,8.98
2023-05-10T02:35:11.992Z,9.02
2023-05-10T02:37:40.059Z,8.95
2023-05-10T02:40:08.550Z,9.00
2023-05-10T02:42:38.151Z,9.00
2023-05-10T02:45:11.347Z,8.97
2023-05-10T02:47:38.304Z,8.97
2023-05-10T02:50:05.285Z,8.95
2023-05-10T02:52:41.520Z,8.88
2023-05-10T02:55:12.804Z,8.88
2023-05-10T02:57:44.067Z,8.88
2023-05-10T03:00:11.266Z,8.84
2023-05-10T03:02:37.860Z,8.84
2023-05-10T03:05:04.578Z,8.86
2023-05-10T03:07:31.229Z,8.86
2023-05-10T03:09:57.987Z,8.82
2023-05-10T03:12:45.508Z,8.76
2023-05-10T03:15:40.944Z,8.79
2023-05-10T03:18:22.766Z,8.76
2023-05-10T03:20:54.287Z,8.67
2023-05-10T03:23:44.473Z,8.70
2023-05-10T03:26:17.484Z,8.64
2023-05-10T03:28:44.969Z,8.63
2023-05-10T03:31:13.207Z,8.64
2023-05-10T03:33:50.617Z,8.63
2023-05-10T03:36:17.227Z,8.57
2023-05-10T03:38:43.962Z,8.54
2023-05-10T03:41:10.595Z,8.56
2023-05-10T03:43:37.393Z,8.51
2023-05-10T03:46:07.913Z,8.49
2023-05-10T03:48:34.361Z,8.50
2023-05-10T03:51:01.126Z,8.53
2023-05-10T03:53:27.728Z,8.61
2023-05-10T03:55:54.408Z,8.59
2023-05-10T03:58:20.967Z,8.52
2023-05-10T04:00:47.481Z,8.53
2023-05-10T04:03:14.531Z,8.55
2023-05-10T04:05:41.637Z,8.53
2023-05-10T04:08:08.311Z,8.52
2023-05-10T04:10:35.049Z,8.59
2023-05-10T04:13:01.991Z,8.61
2023-05-10T04:15:28.492Z,8.61
2023-05-10T04:17:57.839Z,8.65
2023-05-10T04:20:24.399Z,8.68
2023-05-10T04:22:50.916Z,8.71
2023-05-10T04:25:17.417Z,8.76
2023-05-10T04:27:43.943Z,8.83
2023-05-10T04:30:11.112Z,8.87
2023-05-10T04:32:37.515Z,8.89
2023-05-10T04:35:04.292Z,8.93
2023-05-10T04:37:30.777Z,8.99
2023-05-10T04:39:57.577Z,9.03
2023-05-10T04:42:24.281Z,9.13
2023-05-10T04:44:50.762Z,9.18
2023-05-10T04:47:17.185Z,9.33
2023-05-10T04:49:44.321Z,9.39
2023-05-10T04:52:11.021Z,9.51
2023-05-10T04:54:37.456Z,9.48
2023-05-10T04:57:04.236Z,9.65
2023-05-10T04:59:30.900Z,9.72
2023-05-10T05:01:57.390Z,9.69
2023-05-10T05:04:24.038Z,9.85
2023-05-10T05:06:52.337Z,9.89
2023-05-10T05:09:20.529Z,10.03
2023-05-10T05:11:47.212Z,10.11
2023-05-10T05:14:13.968Z,10.14
2023-05-10T05:16:40.763Z,10.33
2023-05-10T05:19:07.555Z,10.38
2023-05-10T05:21:34.406Z,10.56
2023-05-10T05:24:00.933Z,10.63
2023-05-10T05:26:27.498Z,10.70
2023-05-10T05:28:54.132Z,10.77
2023-05-10T05:31:22.064Z,10.93
2023-05-10T05:33:48.708Z,11.00
2023-05-10T05:36:16.273Z,11.05
2023-05-10T05:38:42.760Z,11.15
2023-05-10T05:41:09.719Z,11.22
2023-05-10T05:43:38.340Z,11.39
2023-05-10T05:46:05.506Z,11.47
2023-05-10T05:48:32.557Z,11.62
2023-05-10T05:50:59.092Z,11.72
2023-05-10T05:53:25.986Z,11.80
2023-05-10T05:56:00.468Z,11.95
2023-05-10T05:58:27.108Z,11.98
2023-05-10T06:00:53.563Z,12.14
2023-05-10T06:03:21.538Z,12.28
2023-05-10T06:05:48.151Z,12.38
2023-05-10T06:08:14.577Z,12.51
2023-05-10T06:10:41.291Z,12.66
2023-05-10T06:13:08.070Z,12.74
2023-05-10T06:15:34.576Z,12.86
2023-05-10T06:18:02.311Z,12.99
2023-05-10T06:20:29.165Z,13.05
2023-05-10T06:22:57.541Z,13.17
2023-05-10T06:25:24.430Z,13.33
2023-05-10T06:27:53.623Z,13.48
2023-05-10T06:30:20.606Z,13.60
2023-05-10T06:32:47.485Z,13.68
2023-05-10T06:35:14.178Z,13.80
2023-05-10T06:37:41.014Z,13.87
2023-05-10T06:40:08.365Z,13.95
2023-05-10T06:42:34.795Z,14.11
2023-05-10T06:45:03.613Z,14.09
2023-05-10T06:47:30.672Z,14.14
2023-05-10T06:49:57.651Z,14.26
2023-05-10T06:52:24.210Z,14.30
2023-05-10T06:54:50.949Z,14.38
2023-05-10T06:57:31.215Z,14.48
2023-05-10T07:00:00.208Z,14.52
2023-05-10T07:02:27.865Z,14.68
2023-05-10T07:04:54.453Z,14.58
2023-05-10T07:07:21.267Z,14.72
2023-05-10T07:09:48.015Z,14.83
2023-05-10T07:12:15.681Z,14.93
2023-05-10T07:14:43.282Z,14.90
2023-05-10T07:17:10.422Z,15.07
2023-05-10T07:19:37.102Z,15.14
2023-05-10T07:22:04.095Z,15.27
2023-05-10T07:24:30.986Z,15.43
2023-05-10T07:26:59.426Z,15.55
2023-05-10T07:29:26.750Z,15.56
2023-05-10T07:31:53.428Z,15.68
2023-05-10T07:34:20.208Z,15.82
2023-05-10T07:36:47.451Z,15.94
2023-05-10T07:39:18.668Z,16.03
2023-05-10T07:41:53.086Z,15.95
2023-05-10T07:44:19.848Z,15.89
2023-05-10T07:46:46.344Z,16.14
2023-05-10T07:49:13.870Z,16.26
2023-05-10T07:51:40.552Z,16.42
2023-05-10T07:54:07.011Z,16.50
2023-05-10T07:56:33.751Z,16.59
2023-05-10T07:59:00.751Z,16.42
2023-05-10T08:01:31.184Z,16.63
2023-05-10T08:03:57.882Z,16.90
2023-05-10T08:06:24.607Z,16.87
2023-05-10T08:08:51.072Z,16.98
2023-05-10T08:11:18.809Z,17.05
2023-05-10T08:13:46.289Z,17.07
2023-05-10T08:16:13.081Z,17.18
2023-05-10T08:18:41.035Z,17.18
2023-05-10T08:21:08.037Z,17.32
2023-05-10T08:23:34.556Z,17.34
2023-05-10T08:26:01.195Z,17.41
2023-05-10T08:28:27.746Z,17.72
2023-05-10T08:30:54.325Z,17.77
2023-05-10T08:33:21.497Z,17.93
2023-05-10T08:35:48.423Z,18.07
2023-05-10T08:38:15.014Z,18.13
2023-05-10T08:40:45.989Z,18.23
2023-05-10T08:43:14.099Z,18.36
2023-05-10T08:45:43.081Z,18.23
2023-05-10T08:48:11.917Z,18.42
2023-05-10T08:50:40.746Z,18.59
2023-05-10T08:53:11.642Z,18.66
2023-05-10T08:55:38.849Z,18.77
2023-05-10T08:58:09.748Z,18.88
2023-05-10T09:00:37.638Z,19.24
2023-05-10T09:03:05.997Z,19.48
2023-05-10T09:05:33.099Z,19.63
2023-05-10T09:07:59.883Z,19.67
2023-05-10T09:10:26.610Z,20.02
2023-05-10T09:12:54.182Z,20.27
2023-05-10T09:15:21.170Z,20.08
2023-05-10T09:17:50.297Z,20.31
2023-05-10T09:20:21.494Z,20.55
2023-05-10T09:22:48.519Z,20.58
2023-05-10T09:25:17.506Z,20.82
2023-05-10T09:27:48.726Z,20.64
2023-05-10T09:30:25.133Z,20.93
2023-05-10T09:32:51.881Z,21.11
2023-05-10T09:35:19.502Z,21.23
2023-05-10T09:37:48.258Z,21.35
2023-05-10T09:40:18.283Z,21.16
2023-05-10T09:43:01.737Z,21.03
2023-05-10T09:45:30.921Z,21.00
2023-05-10T09:47:59.254Z,21.37
2023-05-10T09:50:27.311Z,21.39
2023-05-10T09:53:15.034Z,21.53
2023-05-10T09:55:46.676Z,21.72
2023-05-10T09:58:16.752Z,21.76
2023-05-10T10:00:46.230Z,21.70
2023-05-10T10:03:17.585Z,21.85
2023-05-10T10:05:45.022Z,21.85
2023-05-10T10:08:13.075Z,21.76
2023-05-10T10:10:40.311Z,21.77
2023-05-10T10:13:07.982Z,22.06
2023-05-10T10:15:37.538Z,22.36
2023-05-10T10:18:05.682Z,22.39
2023-05-10T10:20:33.808Z,22.48
2023-05-10T10:23:03.227Z,22.62
2023-05-10T10:25:30.111Z,22.86
2023-05-10T10:28:23.275Z,23.06
2023-05-10T10:30:53.081Z,23.36
2023-05-10T10:33:41.535Z,23.09
2023-05-10T10:36:08.297Z,23.02
2023-05-10T10:39:01.623Z,23.19
2023-05-10T10:41:32.251Z,23.40
2023-05-10T10:44:23.746Z,23.63
2023-05-10T10:47:02.671Z,23.89
2023-05-10T10:49:32.506Z,23.72
2023-05-10T10:52:28.471Z,23.89
2023-05-10T10:55:08.879Z,23.97
2023-05-10T10:57:41.430Z,24.10
2023-05-10T11:00:28.324Z,24.26
2023-05-10T11:02:57.132Z,24.18
2023-05-10T11:05:34.686Z,24.50
2023-05-10T11:08:13.199Z,24.21
2023-05-10T11:10:41.189Z,24.24
2023-05-10T11:13:10.638Z,24.29
2023-05-10T11:15:39.706Z,24.05
2023-05-10T11:18:27.718Z,24.06
2023-05-10T11:20:58.866Z,24.43
2023-05-10T11:23:33.617Z,24.59
2023-05-10T11:26:01.581Z,24.74
2023-05-10T11:28:28.310Z,24.86
2023-05-10T11:30:55.827Z,24.99
2023-05-10T11:33:22.806Z,25.16
2023-05-10T11:35:51.955Z,25.31
2023-05-10T11:38:18.953Z,25.30
2023-05-10T11:40:47.979Z,25.09
2023-05-10T11:43:14.747Z,25.03
2023-05-10T11:45:42.529Z,25.35
2023-05-10T11:48:09.285Z,25.32
2023-05-10T11:50:35.841Z,25.51
2023-05-10T11:53:02.545Z,25.40
2023-05-10T11:55:29.003Z,25.32
2023-05-10T11:57:55.633Z,25.09
2023-05-10T12:00:22.945Z,25.28
2023-05-10T12:02:50.581Z,25.46
2023-05-10T12:05:17.703Z,25.69
2023-05-10T12:07:44.290Z,24.71
2023-05-10T12:10:14.672Z,25.05
2023-05-10T12:12:43.875Z,25.13
2023-05-10T12:15:21.894Z,25.05
2023-05-10T12:17:49.058Z,25.13
2023-05-10T12:20:17.533Z,24.98
2023-05-10T12:22:52.494Z,25.00
2023-05-10T12:25:20.317Z,25.47
2023-05-10T12:28:07.031Z,25.44
2023-05-10T12:30:38.036Z,25.45
2023-05-10T12:33:12.928Z,24.75
2023-05-10T12:35:46.748Z,24.43
2023-05-10T12:38:33.191Z,23.97
2023-05-10T12:41:02.331Z,24.52
2023-05-10T12:43:29.548Z,24.97
2023-05-10T12:45:56.230Z,25.28
2023-05-10T12:48:23.469Z,25.73
2023-05-10T12:50:49.919Z,25.79
2023-05-10T12:53:17.148Z,25.21
2023-05-10T12:55:44.622Z,25.26
2023-05-10T12:58:13.889Z,25.42
2023-05-10T13:00:44.596Z,25.67
2023-05-10T13:03:11.313Z,26.01
2023-05-10T13:05:41.086Z,26.18
2023-05-10T13:08:07.642Z,26.10
2023-05-10T13:10:34.397Z,26.17
2023-05-10T13:13:01.534Z,26.47
2023-05-10T13:15:28.436Z,26.04
2023-05-10T13:17:55.266Z,25.94
2023-05-10T13:20:22.223Z,26.40
2023-05-10T13:22:50.063Z,26.84
2023-05-10T13:25:17.040Z,26.89
2023-05-10T13:27:43.575Z,26.77
2023-05-10T13:30:11.124Z,26.77
2023-05-10T13:32:38.312Z,26.61
2023-05-10T13:35:06.084Z,26.44
2023-05-10T13:37:33.284Z,26.21
2023-05-10T13:40:00.100Z,26.13
2023-05-10T13:42:26.877Z,25.97
2023-05-10T13:45:13.785Z,25.83
2023-05-10T13:47:40.562Z,25.89
2023-05-10T13:50:07.590Z,26.09
2023-05-10T13:52:34.188Z,25.91
2023-05-10T13:55:01.103Z,25.70
2023-05-10T13:57:27.952Z,25.51
2023-05-10T13:59:55.877Z,25.88
2023-05-10T14:02:24.923Z,25.90
2023-05-10T14:04:51.712Z,25.97
2023-05-10T14:07:18.283Z,25.72
2023-05-10T14:09:44.909Z,25.67
2023-05-10T14:12:11.721Z,25.72
2023-05-10T14:14:38.444Z,25.63
2023-05-10T14:17:05.102Z,25.31
2023-05-10T14:19:31.908Z,25.42
2023-05-10T14:21:58.717Z,25.27
2023-05-10T14:24:25.440Z,25.57
2023-05-10T14:26:51.945Z,25.32
2023-05-10T14:29:18.633Z,25.16
2023-05-10T14:31:45.477Z,25.09
2023-05-10T14:34:12.172Z,25.23
2023-05-10T14:36:38.704Z,25.33
2023-05-10T14:39:05.449Z,25.55
2023-05-10T14:41:32.140Z,25.45
2023-05-10T14:43:58.930Z,25.41
2023-05-10T14:46:25.688Z,25.33
2023-05-10T14:48:52.497Z,25.19
2023-05-10T14:51:19.126Z,24.96
2023-05-10T14:53:45.496Z,24.96
2023-05-10T14:56:12.040Z,25.11
2023-05-10T14:58:38.509Z,24.91
2023-05-10T15:01:06.979Z,24.77
2023-05-10T15:03:34.033Z,24.81
2023-05-10T15:06:05.042Z,24.65
2023-05-10T15:08:31.784Z,24.69
2023-05-10T15:10:58.495Z,24.85
2023-05-10T15:13:25.253Z,24.95
2023-05-10T15:15:51.793Z,24.56
2023-05-10T15:18:20.140Z,24.55
2023-05-10T15:20:46.973Z,24.32
2023-05-10T15:23:13.516Z,24.18
2023-05-10T15:25:40.007Z,24.09
2023-05-10T15:28:06.792Z,24.18
2023-05-10T15:30:33.557Z,24.09
2023-05-10T15:33:00.419Z,24.07
2023-05-10T15:35:27.737Z,23.99
2023-05-10T15:37:54.233Z,23.87
2023-05-10T15:40:22.200Z,23.73
2023-05-10T15:42:48.753Z,23.76
2023-05-10T15:45:15.642Z,23.46
2023-05-10T15:47:42.317Z,23.18
2023-05-10T15:50:09.878Z,23.21
2023-05-10T15:52:38.620Z,22.93
2023-05-10T15:55:05.860Z,23.06
2023-05-10T15:57:32.395Z,23.15
2023-05-10T15:59:59.124Z,23.17
2023-05-10T16:02:27.856Z,23.14
2023-05-10T16:04:54.532Z,23.23
2023-05-10T16:07:21.195Z,23.28
2023-05-10T16:09:48.124Z,23.16
2023-05-10T16:12:17.316Z,22.92
2023-05-10T16:14:44.081Z,22.87
2023-05-10T16:17:10.854Z,22.80
2023-05-10T16:19:37.648Z,22.52
2023-05-10T16:22:05.042Z,22.43
2023-05-10T16:24:31.743Z,22.35
2023-05-10T16:26:58.516Z,22.38
2023-05-10T16:29:25.026Z,22.47
2023-05-10T16:31:51.525Z,22.40
2023-05-10T16:34:17.939Z,22.39
2023-05-10T16:36:44.647Z,22.43
2023-05-10T16:39:11.150Z,22.30
2023-05-10T16:41:37.560Z,22.28
2023-05-10T16:44:04.064Z,22.33
2023-05-10T16:46:30.629Z,22.33
2023-05-10T16:48:57.138Z,22.27
2023-05-10T16:51:23.914Z,22.18
2023-05-10T16:53:50.296Z,22.17
2023-05-10T16:56:17.016Z,22.08
2023-05-10T16:58:43.569Z,21.88
2023-05-10T17:01:10.302Z,21.82
2023-05-10T17:03:36.913Z,21.82
2023-05-10T17:06:05.791Z,21.83
2023-05-10T17:08:32.360Z,21.78
2023-05-10T17:11:01.438Z,21.67
2023-05-10T17:13:28.222Z,21.59
2023-05-10T17:15:55.063Z,21.36
2023-05-10T17:18:22.079Z,21.18
2023-05-10T17:20:48.645Z,21.06
2023-05-10T17:23:15.434Z,21.02
2023-05-10T17:25:42.135Z,20.93
2023-05-10T17:28:08.688Z,20.75
2023-05-10T17:30:37.440Z,20.70
2023-05-10T17:33:04.155Z,20.61
2023-05-10T17:35:30.879Z,20.54
2023-05-10T17:37:57.469Z,20.50
2023-05-10T17:40:24.032Z,20.38
2023-05-10T17:42:50.766Z,20.26
2023-05-10T17:45:18.839Z,20.24
2023-05-10T17:47:46.318Z,20.15
2023-05-10T17:50:13.895Z,20.09
2023-05-10T17:52:40.636Z,20.08
2023-05-10T17:55:07.470Z,19.97
2023-05-10T17:57:34.299Z,19.89
2023-05-10T18:00:00.971Z,19.81
2023-05-10T18:02:27.388Z,19.73
2023-05-10T18:04:54.330Z,19.69
2023-05-10T18:07:24.026Z,19.59
2023-05-10T18:09:50.594Z,19.52
2023-05-10T18:12:17.224Z,19.44
2023-05-10T18:14:43.733Z,19.39
2023-05-10T18:17:10.542Z,19.31
2023-05-10T18:19:37.543Z,19.28
2023-05-10T18:22:04.558Z,19.20
2023-05-10T18:27:20.270Z,19.01
2023-05-10T18:29:46.919Z,18.96
2023-05-10T18:32:13.816Z,18.89
2023-05-10T18:34:40.307Z,18.75
2023-05-10T18:37:08.004Z,18.65
2023-05-10T18:39:36.137Z,18.59
2023-05-10T18:42:04.317Z,18.55
2023-05-10T18:44:31.403Z,18.46
2023-05-10T18:46:58.158Z,18.36
2023-05-10T18:49:24.947Z,18.32
2023-05-10T18:51:52.869Z,18.20
2023-05-10T18:54:19.639Z,18.06
2023-05-10T18:56:46.894Z,17.93
2023-05-10T18:59:13.854Z,17.92
2023-05-10T19:01:41.511Z,17.84
2023-05-10T19:04:08.162Z,17.74
2023-05-10T19:06:36.151Z,17.68
2023-05-10T19:09:02.820Z,17.65
2023-05-10T19:11:29.280Z,17.56
2023-05-10T19:13:55.790Z,17.46
2023-05-10T19:16:24.243Z,17.37
2023-05-10T19:18:52.531Z,17.28
2023-05-10T19:21:19.346Z,17.29
2023-05-10T19:23:46.047Z,17.24
2023-05-10T19:26:12.608Z,17.22
2023-05-10T19:28:39.702Z,17.14
2023-05-10T19:31:09.337Z,17.09
2023-05-10T19:33:36.108Z,16.98
2023-05-10T19:36:02.927Z,16.96
2023-05-10T19:38:29.797Z,16.91
2023-05-10T19:40:59.549Z,16.88
2023-05-10T19:43:27.577Z,16.81
2023-05-10T19:45:55.850Z,16.77
2023-05-10T19:48:22.434Z,16.72
2023-05-10T19:50:49.184Z,16.65
2023-05-10T19:53:15.641Z,16.60
2023-05-10T19:55:42.676Z,16.57
2023-05-10T19:58:09.190Z,16.58
2023-05-10T20:00:36.279Z,16.55
2023-05-10T20:03:04.062Z,16.53
2023-05-10T20:05:30.935Z,16.52
2023-05-10T20:07:57.534Z,16.53
2023-05-10T20:10:26.375Z,16.52
2023-05-10T20:12:54.169Z,16.47
2023-05-10T20:15:22.019Z,16.40
2023-05-10T20:17:52.485Z,16.38
2023-05-10T20:20:20.443Z,16.32
2023-05-10T20:22:49.647Z,16.25
2023-05-10T20:25:17.839Z,16.19
2023-05-10T20:27:44.621Z,16.15
2023-05-10T20:30:12.989Z,16.16
2023-05-10T20:32:39.876Z,16.11
2023-05-10T20:35:06.802Z,16.12
2023-05-10T20:37:33.374Z,16.08
2023-05-10T20:40:00.078Z,16.07
2023-05-10T20:42:28.702Z,16.02
2023-05-10T20:44:55.899Z,15.98
2023-05-10T20:47:22.403Z,15.93
2023-05-10T20:49:49.604Z,15.90
2023-05-10T20:52:16.846Z,15.86
2023-05-10T20:54:43.855Z,15.78
2023-05-10T20:57:10.292Z,15.72
2023-05-10T20:59:36.991Z,15.64
2023-05-10T21:02:03.586Z,15.55
2023-05-10T21:04:30.337Z,15.47
2023-05-10T21:06:56.703Z,15.43
2023-05-10T21:09:23.249Z,15.37
2023-05-10T21:11:50.234Z,15.28
2023-05-10T21:14:16.843Z,15.16
2023-05-10T21:16:46.623Z,15.14
2023-05-10T21:19:13.115Z,15.09
2023-05-10T21:21:39.814Z,14.98
2023-05-10T21:24:06.938Z,14.87
2023-05-10T21:26:34.709Z,14.81
2023-05-10T21:29:01.457Z,14.73
2023-05-10T21:31:28.273Z,14.68
2023-05-10T21:33:55.059Z,14.60
2023-05-10T21:36:21.542Z,14.49
2023-05-10T21:38:48.430Z,14.40
2023-05-10T21:41:14.822Z,14.43
2023-05-10T21:43:41.465Z,14.41
2023-05-10T21:46:08.811Z,14.30
2023-05-10T21:48:36.676Z,14.17
2023-05-10T21:51:03.522Z,14.11
2023-05-10T21:53:29.989Z,14.06
2023-05-10T21:55:56.639Z,13.98
2023-05-10T21:58:24.490Z,13.91
2023-05-10T22:00:51.316Z,13.85
2023-05-10T22:03:18.268Z,13.82
2023-05-10T22:05:45.162Z,13.76
2023-05-10T22:08:11.623Z,13.77
2023-05-10T22:10:38.310Z,13.76
2023-05-10T22:13:05.179Z,13.70
2023-05-10T22:15:32.591Z,13.69
2023-05-10T22:18:00.208Z,13.64
2023-05-10T22:20:26.951Z,13.64
2023-05-10T22:22:55.226Z,13.54
2023-05-10T22:25:21.868Z,13.53
2023-05-10T22:27:48.608Z,13.53
2023-05-10T22:30:15.752Z,13.50
2023-05-10T22:32:42.640Z,13.39
2023-05-10T22:35:09.372Z,13.30
2023-05-10T22:37:36.034Z,13.23
2023-05-10T22:40:02.729Z,13.18
2023-05-10T22:42:30.043Z,13.21
2023-05-10T22:44:56.519Z,13.21
2023-05-10T22:47:23.267Z,13.19
2023-05-10T22:49:50.193Z,13.14
2023-05-10T22:52:16.552Z,13.11
2023-05-10T22:54:43.064Z,13.06
2023-05-10T22:57:09.907Z,13.01
2023-05-10T22:59:36.509Z,12.93
2023-05-10T23:02:04.197Z,12.86
2023-05-10T23:04:30.954Z,12.78
2023-05-10T23:07:00.530Z,12.72
2023-05-10T23:09:27.084Z,12.67
2023-05-10T23:11:53.891Z,12.60
2023-05-10T23:14:20.425Z,12.56
2023-05-10T23:16:47.214Z,12.50
2023-05-10T23:19:13.714Z,12.47
2023-05-10T23:21:40.409Z,12.43
2023-05-10T23:24:07.451Z,12.40
2023-05-10T23:26:34.336Z,12.34
2023-05-10T23:29:01.205Z,12.30
2023-05-10T23:31:27.818Z,12.24
2023-05-10T23:33:54.691Z,12.16
2023-05-10T23:36:21.270Z,12.15
2023-05-10T23:38:47.728Z,12.12
2023-05-10T23:41:14.280Z,12.03
2023-05-10T23:43:40.712Z,12.01
2023-05-10T23:46:07.444Z,11.96
2023-05-10T23:48:34.047Z,11.91
2023-05-10T23:51:00.589Z,11.91
2023-05-10T23:53:27.351Z,11.88
2023-05-10T23:55:53.885Z,11.87
2023-05-10T23:58:20.370Z,11.93
